Time;durP1;ratioP1;P1;durP2;ratioP2;P2;SDS_P1;SDS_P2;PMS_P1;PMS_P2;Temp;Humidity;BMP_temperature;BMP_pressure;BME280_temperature;BME280_humidity;BME280_pressure;Samples;Min_cycle;Max_cycle;Signal;HPM_P1;HPM_P2
2023/03/24 00:54:08;;;;;;;4.20;3.78;;;;;;;13.92;58.61;95883.56;6185779;22;20006;-81
2023/03/24 00:56:39;;;;;;;5.75;4.38;;;;;;;13.89;59.03;95877.97;6185222;23;20082;-78
2023/03/24 00:59:08;;;;;;;5.65;4.03;;;;;;;13.86;58.98;95871.31;6184389;23;20053;-78
2023/03/24 01:01:39;;;;;;;5.72;3.63;;;;;;;13.83;59.26;95873.59;6185114;23;20025;-78
2023/03/24 01:04:08;;;;;;;6.90;4.43;;;;;;;13.82;59.62;95870.19;6184649;23;20017;-78
2023/03/24 01:12:12;;;;;;;5.18;3.80;;;;;;;13.87;59.99;95846.72;6240270;22;20024;-80
2023/03/24 01:14:50;;;;;;;7.47;4.80;;;;;;;13.88;59.77;95842.28;6244562;23;20044;-80
2023/03/24 01:17:25;;;;;;;4.88;3.92;;;;;;;13.89;59.85;95842.06;6244947;23;20060;-80
2023/03/24 01:20:00;;;;;;;7.45;3.63;;;;;;;13.88;59.45;95840.44;6245157;23;20005;-80
2023/03/24 01:22:36;;;;;;;6.03;3.78;;;;;;;13.86;59.58;95839.06;6245359;23;20032;-80
2023/03/24 01:25:15;;;;;;;3.33;3.03;;;;;;;13.82;59.07;95830.88;6245472;23;20056;-80
2023/03/24 01:27:55;;;;;;;6.47;3.38;;;;;;;13.81;59.25;95829.25;6245029;23;20016;-82
2023/03/24 01:30:33;;;;;;;3.80;3.40;;;;;;;13.79;59.40;95820.81;6245081;23;20021;-81
2023/03/24 01:35:59;;;;;;;5.07;3.08;;;;;;;13.85;59.87;95812.06;6245141;23;20004;-80
2023/03/24 01:38:32;;;;;;;2.97;2.45;;;;;;;13.90;59.68;95806.94;6244446;23;20047;-80
2023/03/24 01:41:07;;;;;;;4.78;3.03;;;;;;;13.93;59.65;95798.66;6244955;23;20047;-80
2023/03/24 01:43:48;;;;;;;3.53;2.83;;;;;;;13.94;59.96;95797.63;6244846;23;20000;-81
2023/03/24 01:46:25;;;;;;;6.75;2.78;;;;;;;13.97;59.67;95796.38;6244717;23;20257;-81
2023/03/24 01:49:00;;;;;;;3.90;3.40;;;;;;;13.99;59.30;95783.84;6244545;23;20007;-80
2023/03/24 01:51:39;;;;;;;4.78;3.47;;;;;;;14.00;59.84;95781.00;6244786;23;20008;-81
2023/03/24 01:54:22;;;;;;;4.97;3.35;;;;;;;14.02;59.38;95763.22;6244830;23;20060;-80
2023/03/24 01:57:06;;;;;;;7.32;3.97;;;;;;;14.08;59.35;95768.59;6244857;23;20024;-80
2023/03/24 01:59:43;;;;;;;4.63;3.45;;;;;;;14.10;58.75;95766.53;6244538;23;20028;-80
2023/03/24 02:02:20;;;;;;;4.13;3.17;;;;;;;14.11;58.36;95763.72;6244786;23;20068;-81
2023/03/24 02:05:03;;;;;;;5.82;3.08;;;;;;;14.11;59.00;95768.16;6244826;23;20354;-80
2023/03/24 02:07:51;;;;;;;3.65;3.03;;;;;;;14.09;58.25;95762.34;6244592;23;20791;-79
2023/03/24 02:10:33;;;;;;;4.90;3.30;;;;;;;14.11;58.83;95757.66;6244131;23;20011;-81
2023/03/24 02:13:10;;;;;;;4.28;3.58;;;;;;;14.14;58.46;95757.22;6244521;23;20017;-80
2023/03/24 02:16:09;;;;;;;3.28;2.75;;;;;;;14.15;58.22;95758.81;6219963;23;20012;-80
2023/03/24 02:22:12;;;;;;;3.58;2.88;;;;;;;14.18;57.93;95745.25;6269288;22;20046;-80
2023/03/24 02:25:28;;;;;;;4.03;3.35;;;;;;;14.21;57.87;95736.91;6274878;22;20004;-79
2023/03/24 02:28:28;;;;;;;4.15;3.63;;;;;;;14.17;57.55;95738.41;6255190;22;20035;-81
2023/03/24 02:31:35;;;;;;;5.38;3.67;;;;;;;14.12;57.46;95731.19;6243619;23;20039;-79
2023/03/24 03:49:49;;;;;;;3.33;2.95;;;;;;;14.00;56.06;95683.19;6204038;22;20064;-89
2023/03/24 03:52:17;;;;;;;4.40;3.40;;;;;;;13.98;55.83;95688.66;6192995;23;20059;-86
2023/03/24 03:54:46;;;;;;;4.80;2.92;;;;;;;13.98;55.93;95693.09;6192299;23;20313;-85
2023/03/24 03:57:14;;;;;;;4.75;3.25;;;;;;;13.98;55.49;95696.50;6191821;23;20021;-84
2023/03/24 03:59:42;;;;;;;4.93;3.33;;;;;;;13.97;55.80;95696.72;6191111;23;20017;-88
2023/03/24 04:02:28;;;;;;;4.78;3.60;;;;;;;13.99;55.80;95686.81;6191251;23;20016;-86
2023/03/24 04:05:26;;;;;;;3.90;3.25;;;;;;;14.00;55.60;95691.84;6213148;22;20017;-80
2023/03/24 04:08:13;;;;;;;5.10;3.28;;;;;;;13.98;55.90;95690.47;6216323;23;20028;-79
2023/03/24 04:11:08;;;;;;;3.97;3.05;;;;;;;13.97;55.99;95683.63;6219226;23;20540;-80
2023/03/24 04:13:45;;;;;;;4.03;3.33;;;;;;;13.97;55.93;95683.63;6219002;23;20031;-80
2023/03/24 04:16:20;;;;;;;7.13;3.40;;;;;;;13.98;55.83;95675.53;6218789;23;20061;-80
2023/03/24 04:19:08;;;;;;;4.18;2.83;;;;;;;14.01;55.73;95682.97;6216618;23;20020;-79
2023/03/24 04:21:50;;;;;;;6.10;3.00;;;;;;;14.03;55.68;95677.47;6216240;23;20013;-80
2023/03/24 04:24:27;;;;;;;4.72;2.85;;;;;;;14.07;55.54;95678.63;6217069;23;20048;-80
2023/03/24 04:26:59;;;;;;;4.55;3.10;;;;;;;14.11;55.59;95681.63;6217880;23;20047;-80
2023/03/24 04:29:35;;;;;;;4.97;3.03;;;;;;;14.13;55.05;95690.06;6217432;23;20020;-80
2023/03/24 04:32:10;;;;;;;3.38;2.30;;;;;;;14.14;55.07;95683.78;6230880;23;20037;-80
2023/03/24 04:34:43;;;;;;;3.97;2.53;;;;;;;14.14;55.16;95681.94;6219914;23;20071;-80
2023/03/24 04:37:17;;;;;;;4.40;3.20;;;;;;;14.16;55.25;95681.72;6218339;23;20024;-80
2023/03/24 04:39:48;;;;;;;3.55;2.30;;;;;;;14.15;56.37;95677.53;6217820;23;20021;-80
2023/03/24 04:42:20;;;;;;;2.83;2.40;;;;;;;14.16;55.51;95676.47;6216557;23;20012;-80
2023/03/24 04:44:50;;;;;;;2.97;2.33;;;;;;;14.18;55.85;95680.47;6217650;23;20040;-80
2023/03/24 04:47:21;;;;;;;3.53;3.08;;;;;;;14.20;55.79;95680.25;6216300;23;20441;-80
2023/03/24 04:49:49;;;;;;;4.22;2.63;;;;;;;14.24;55.75;95689.28;6218243;23;20024;-80
2023/03/24 04:52:18;;;;;;;2.92;2.45;;;;;;;14.26;55.11;95692.47;6228071;23;20047;-80
2023/03/24 04:54:46;;;;;;;3.65;2.50;;;;;;;14.29;55.31;95685.97;6229872;23;20025;-80
2023/03/24 04:57:13;;;;;;;4.43;3.15;;;;;;;14.33;55.46;95692.34;6218424;23;20017;-80
2023/03/24 04:59:41;;;;;;;3.72;2.70;;;;;;;14.33;55.27;95695.78;6227265;23;20027;-80
2023/03/24 05:02:09;;;;;;;3.10;2.78;;;;;;;14.33;55.52;95705.47;6240267;23;20394;-79
2023/03/24 05:04:37;;;;;;;2.60;2.20;;;;;;;14.34;55.66;95699.19;6234164;23;20496;-80
2023/03/24 05:07:04;;;;;;;3.25;2.45;;;;;;;14.35;55.76;95685.06;6228467;23;20055;-80
2023/03/24 05:09:33;;;;;;;2.58;2.38;;;;;;;14.38;56.34;95695.09;6216629;23;20104;-80
2023/03/24 05:12:01;;;;;;;3.35;2.25;;;;;;;14.38;56.32;95671.47;6219034;23;20017;-80
2023/03/24 05:14:29;;;;;;;3.90;2.70;;;;;;;14.38;56.52;95659.16;6219759;23;20017;-80
2023/03/24 05:16:56;;;;;;;3.15;2.70;;;;;;;14.35;56.74;95664.84;6220178;23;20017;-80
2023/03/24 05:19:24;;;;;;;2.65;2.45;;;;;;;14.32;57.07;95654.84;6218546;23;20495;-80
2023/03/24 05:21:52;;;;;;;2.75;2.50;;;;;;;14.26;57.50;95655.75;6217240;23;20360;-80
2023/03/24 05:24:21;;;;;;;3.80;2.83;;;;;;;14.23;57.41;95661.44;6218277;23;20095;-80
2023/03/24 05:26:50;;;;;;;3.53;3.22;;;;;;;14.20;57.57;95662.69;6219902;23;20405;-80
2023/03/24 05:29:17;;;;;;;2.25;1.88;;;;;;;14.17;57.54;95668.41;6217993;23;20099;-80
2023/03/24 05:31:45;;;;;;;4.22;2.67;;;;;;;14.17;57.58;95672.84;6217698;23;20020;-80
2023/03/24 05:34:13;;;;;;;3.15;2.65;;;;;;;14.14;57.50;95687.19;6221907;23;20032;-80
2023/03/24 05:36:40;;;;;;;3.92;2.83;;;;;;;14.12;57.49;95685.81;6218973;23;20052;-80
2023/03/24 05:39:08;;;;;;;3.40;2.85;;;;;;;14.08;57.88;95682.88;6219501;23;20456;-80
2023/03/24 05:41:35;;;;;;;4.47;2.50;;;;;;;14.05;57.89;95678.06;6218812;23;20012;-80
2023/03/24 05:44:04;;;;;;;2.97;2.33;;;;;;;14.03;58.17;95672.25;6224718;23;20051;-80
2023/03/24 05:46:32;;;;;;;3.88;2.38;;;;;;;14.03;58.21;95672.25;6217479;23;20071;-79
2023/03/24 05:49:00;;;;;;;3.80;2.25;;;;;;;14.04;58.07;95675.66;6219733;23;20492;-80
2023/03/24 05:51:27;;;;;;;3.85;2.60;;;;;;;14.01;58.36;95684.78;6217332;23;20023;-80
2023/03/24 05:53:55;;;;;;;3.17;2.80;;;;;;;13.97;58.54;95684.44;6216885;23;20048;-80
2023/03/24 05:56:23;;;;;;;4.53;2.95;;;;;;;13.98;58.40;95691.28;6216706;23;20099;-80
2023/03/24 05:58:51;;;;;;;5.40;3.63;;;;;;;13.98;58.62;95696.50;6215824;23;20047;-80
2023/03/24 06:01:20;;;;;;;5.78;3.28;;;;;;;13.98;58.78;95709.63;6222882;23;20052;-79
2023/03/24 06:03:47;;;;;;;4.00;2.72;;;;;;;13.98;58.56;95712.25;6239502;23;20031;-80
2023/03/24 06:06:15;;;;;;;5.40;2.92;;;;;;;14.02;58.44;95729.13;6241128;23;20024;-80
2023/03/24 06:08:44;;;;;;;3.05;2.53;;;;;;;14.03;58.88;95756.16;6240120;23;20028;-79
2023/03/24 06:11:12;;;;;;;4.15;2.08;;;;;;;14.08;58.54;95776.44;6240869;23;20024;-80
2023/03/24 06:13:40;;;;;;;1.90;1.42;;;;;;;14.12;58.42;95780.22;6229499;23;20021;-80
2023/03/24 06:16:08;;;;;;;1.80;1.27;;;;;;;14.17;58.68;95789.03;6216953;23;20031;-80
2023/03/24 06:18:39;;;;;;;2.75;1.40;;;;;;;14.23;59.21;95792.56;6216326;23;20085;-80
2023/03/24 06:21:07;;;;;;;1.63;1.30;;;;;;;14.26;59.38;95800.00;6216716;23;20024;-80
2023/03/24 06:23:34;;;;;;;1.58;1.48;;;;;;;14.28;59.98;95795.34;6216554;23;20059;-80
2023/03/24 06:26:08;;;;;;;3.03;2.17;;;;;;;14.28;61.05;95811.09;6216225;23;20484;-80
2023/03/24 06:28:38;;;;;;;1.92;1.40;;;;;;;14.27;60.95;95804.22;6219243;23;20611;-80
2023/03/24 06:31:13;;;;;;;1.58;1.48;;;;;;;14.24;61.66;95815.19;6219052;23;20075;-79
2023/03/24 06:33:42;;;;;;;1.60;1.50;;;;;;;14.17;62.71;95814.47;6215326;23;20530;-78
2023/03/24 06:36:12;;;;;;;1.73;1.42;;;;;;;14.10;63.23;95819.81;6216151;23;20056;-78
2023/03/24 06:38:40;;;;;;;2.80;2.30;;;;;;;14.10;63.33;95819.00;6215120;23;20021;-77
2023/03/24 06:41:08;;;;;;;3.17;2.10;;;;;;;14.09;63.72;95822.66;6215659;23;20024;-78
2023/03/24 06:43:36;;;;;;;4.63;2.38;;;;;;;14.07;64.39;95820.25;6215224;23;20352;-79
2023/03/24 06:46:04;;;;;;;2.60;2.40;;;;;;;14.02;64.60;95813.03;6215584;23;20389;-79
2023/03/24 06:48:32;;;;;;;2.45;1.90;;;;;;;14.02;64.91;95812.25;6214726;23;20016;-78
2023/03/24 06:51:01;;;;;;;3.83;2.15;;;;;;;14.00;65.72;95820.34;6214994;23;20132;-79
2023/03/24 06:53:29;;;;;;;3.50;2.33;;;;;;;13.99;65.51;95807.44;6214939;23;20021;-79
2023/03/24 06:55:56;;;;;;;2.10;1.90;;;;;;;13.98;65.79;95817.13;6215041;23;20103;-78
2023/03/24 06:58:24;;;;;;;3.40;1.55;;;;;;;13.99;65.80;95816.13;6216363;23;20099;-78
2023/03/24 07:00:52;;;;;;;2.75;2.30;;;;;;;14.00;65.96;95819.53;6210722;23;20055;-79
2023/03/24 07:03:21;;;;;;;3.03;1.85;;;;;;;13.97;66.15;95815.53;6215750;23;20479;-79
2023/03/24 07:05:49;;;;;;;3.55;2.22;;;;;;;13.99;66.31;95823.16;6216327;23;20025;-79
2023/03/24 07:08:18;;;;;;;4.05;2.55;;;;;;;14.00;66.44;95817.72;6214484;23;20031;-79
2023/03/24 07:11:05;;;;;;;2.33;2.13;;;;;;;14.04;66.33;95819.88;6214602;23;20054;-79
2023/03/24 07:13:33;;;;;;;3.65;2.42;;;;;;;14.06;66.40;95826.53;6213399;23;20107;-78
2023/03/24 07:16:00;;;;;;;7.05;2.88;;;;;;;14.08;66.76;95826.28;6213808;23;20095;-79
2023/03/24 07:18:28;;;;;;;3.17;1.92;;;;;;;14.10;66.64;95825.06;6213795;23;20103;-79
2023/03/24 07:20:56;;;;;;;2.03;1.80;;;;;;;14.13;66.78;95824.59;6213956;23;20031;-78
2023/03/24 07:23:26;;;;;;;3.10;2.15;;;;;;;14.15;66.71;95827.81;6215786;23;20099;-79
2023/03/24 07:25:54;;;;;;;2.75;2.35;;;;;;;14.17;66.61;95814.47;6215584;23;20409;-78
2023/03/24 07:28:21;;;;;;;2.83;2.20;;;;;;;14.17;66.77;95823.13;6215168;23;20020;-78
2023/03/24 07:30:49;;;;;;;2.58;2.00;;;;;;;14.16;66.70;95823.34;6215839;23;20021;-79
2023/03/24 07:33:23;;;;;;;2.30;2.10;;;;;;;14.20;66.62;95816.63;6216028;23;20024;-78
2023/03/24 07:35:54;;;;;;;3.20;1.90;;;;;;;14.24;66.71;95814.38;6216618;23;20020;-79
2023/03/24 07:38:22;;;;;;;4.80;2.30;;;;;;;14.25;66.71;95816.75;6214827;23;20608;-79
2023/03/24 07:40:50;;;;;;;3.28;1.95;;;;;;;14.25;66.84;95823.84;6216291;23;20405;-79
2023/03/24 07:43:18;;;;;;;4.20;2.13;;;;;;;14.29;66.94;95827.63;6214598;23;20016;-78
2023/03/24 07:45:46;;;;;;;1.77;1.65;;;;;;;14.33;66.68;95824.31;6215125;23;20016;-78
2023/03/24 07:48:14;;;;;;;2.70;2.33;;;;;;;14.38;66.50;95831.50;6214745;23;20384;-78
2023/03/24 07:50:42;;;;;;;2.88;1.88;;;;;;;14.41;66.42;95831.09;6230602;23;20031;-79
2023/03/24 07:53:10;;;;;;;2.40;2.20;;;;;;;14.41;66.59;95837.13;6228656;23;20017;-78
2023/03/24 07:55:37;;;;;;;2.17;1.90;;;;;;;14.43;66.63;95842.94;6216336;23;20104;-78
2023/03/24 07:58:06;;;;;;;4.07;2.42;;;;;;;14.46;66.85;95854.03;6214350;23;20468;-78
2023/03/24 08:00:34;;;;;;;4.72;2.88;;;;;;;14.47;66.80;95855.59;6215031;23;20107;-78
2023/03/24 08:03:02;;;;;;;4.20;2.30;;;;;;;14.45;67.22;95862.91;6214431;23;20481;-79
2023/03/24 08:05:30;;;;;;;2.33;2.13;;;;;;;14.42;66.67;95864.16;6215470;23;20028;-79
2023/03/24 08:07:59;;;;;;;2.60;2.40;;;;;;;14.39;66.90;95868.03;6214535;23;20052;-80
2023/03/24 08:10:28;;;;;;;3.08;2.78;;;;;;;14.37;67.27;95880.56;6215399;23;20095;-79
2023/03/24 08:12:57;;;;;;;3.67;2.17;;;;;;;14.32;66.87;95880.44;6214426;23;20130;-80
2023/03/24 08:15:27;;;;;;;4.00;1.90;;;;;;;14.29;67.12;95887.94;6214580;23;20020;-79
2023/03/24 08:17:55;;;;;;;2.20;1.95;;;;;;;14.23;67.34;95881.75;6213521;23;20055;-78
2023/03/24 08:20:24;;;;;;;3.08;2.20;;;;;;;14.18;67.91;95892.13;6214985;23;20021;-78
2023/03/24 08:22:53;;;;;;;1.88;1.60;;;;;;;14.09;68.12;95896.09;6215571;23;20021;-78
2023/03/24 08:25:23;;;;;;;2.15;1.92;;;;;;;14.05;68.56;95900.97;6216284;23;20127;-78
2023/03/24 08:27:51;;;;;;;3.90;1.92;;;;;;;14.01;68.50;95900.63;6215229;23;20036;-78
2023/03/24 08:30:20;;;;;;;2.58;1.80;;;;;;;13.99;69.09;95897.41;6216668;23;20512;-78
2023/03/24 08:32:52;;;;;;;2.70;1.90;;;;;;;13.95;69.45;95901.50;6215858;23;20020;-79
2023/03/24 08:35:23;;;;;;;1.90;1.70;;;;;;;13.93;69.49;95900.91;6215694;23;20028;-79
2023/03/24 08:37:51;;;;;;;2.45;1.52;;;;;;;13.90;69.38;95898.72;6214545;23;20647;-77
2023/03/24 08:40:22;;;;;;;3.90;1.73;;;;;;;13.88;69.90;95907.81;6215466;23;20021;-78
2023/03/24 08:42:53;;;;;;;1.70;1.30;;;;;;;13.88;69.71;95908.59;6215739;23;20028;-78
2023/03/24 08:45:22;;;;;;;2.75;1.98;;;;;;;13.88;69.60;95902.56;6215420;23;20048;-78
2023/03/24 08:47:52;;;;;;;2.20;2.00;;;;;;;13.86;70.02;95899.38;6215401;23;20040;-77
2023/03/24 08:50:22;;;;;;;2.78;1.63;;;;;;;13.81;70.36;95900.81;6215593;23;20044;-77
2023/03/24 08:52:50;;;;;;;3.28;1.95;;;;;;;13.80;70.71;95885.34;6215614;23;20500;-78
2023/03/24 08:55:19;;;;;;;1.77;1.67;;;;;;;13.82;70.77;95901.66;6215778;23;20056;-78
2023/03/24 08:57:47;;;;;;;1.98;1.77;;;;;;;13.82;71.07;95901.66;6215300;23;20021;-77
2023/03/24 09:00:17;;;;;;;2.67;1.77;;;;;;;13.82;71.28;95896.41;6215495;23;20465;-79
2023/03/24 09:02:47;;;;;;;1.90;1.70;;;;;;;13.84;71.37;95893.53;6215580;23;20029;-77
2023/03/24 09:05:17;;;;;;;2.38;2.17;;;;;;;13.86;71.68;95891.50;6215322;23;20021;-78
2023/03/24 09:07:51;;;;;;;2.83;1.60;;;;;;;13.86;71.25;95881.00;6214402;23;20100;-78
2023/03/24 09:10:21;;;;;;;2.90;2.22;;;;;;;13.86;71.60;95870.53;6215515;23;20099;-79
2023/03/24 09:12:49;;;;;;;2.10;1.70;;;;;;;13.90;71.40;95863.81;6216857;23;20055;-80
2023/03/24 09:15:17;;;;;;;2.33;1.80;;;;;;;13.96;71.51;95862.94;6219740;23;20032;-80
2023/03/24 09:17:45;;;;;;;2.58;1.55;;;;;;;14.00;71.47;95846.56;6220591;23;20051;-80
2023/03/24 09:20:14;;;;;;;1.88;1.70;;;;;;;14.06;71.22;95828.31;6219829;23;20025;-79
2023/03/24 09:22:46;;;;;;;1.70;1.60;;;;;;;14.09;71.36;95820.03;6227892;23;20024;-80
2023/03/24 09:25:16;;;;;;;1.75;1.48;;;;;;;14.12;71.46;95783.66;6223881;23;20059;-80
2023/03/24 09:27:44;;;;;;;1.83;1.73;;;;;;;14.18;70.90;95779.34;6221328;23;20076;-79
2023/03/24 09:30:14;;;;;;;1.27;0.90;;;;;;;14.22;70.84;95812.75;6219434;23;20524;-80
2023/03/24 09:32:42;;;;;;;1.73;1.50;;;;;;;14.22;70.22;95817.22;6219991;23;20521;-80
2023/03/24 09:35:10;;;;;;;1.50;1.40;;;;;;;14.19;70.21;95817.66;6217879;23;20028;-78
2023/03/24 09:37:38;;;;;;;2.08;1.40;;;;;;;14.21;70.77;95841.84;6216403;23;20108;-79
2023/03/24 09:40:14;;;;;;;4.00;1.70;;;;;;;14.25;71.08;95848.25;6215856;23;20657;-79
2023/03/24 09:42:42;;;;;;;1.40;1.30;;;;;;;14.29;70.73;95866.97;6217394;23;20103;-78
2023/03/24 09:45:16;;;;;;;1.88;1.58;;;;;;;14.32;71.12;95854.22;6215770;23;20021;-78
2023/03/24 09:47:49;;;;;;;3.05;1.40;;;;;;;14.38;70.96;95857.75;6216467;23;20107;-77
2023/03/24 09:50:19;;;;;;;;;;;;;;;14.39;69.80;95857.53;6216177;23;20023;-77
2023/03/24 09:52:53;;;;;;;1.88;1.70;;;;;;;14.38;71.09;95853.28;6215989;23;19916;-78
2023/03/24 09:55:25;;;;;;;4.38;1.67;;;;;;;14.39;70.32;95852.28;6215592;23;20480;-79
2023/03/24 09:57:55;;;;;;;2.55;1.80;;;;;;;14.33;70.27;95852.38;6215016;23;20024;-78
2023/03/24 10:00:26;;;;;;;2.75;2.00;;;;;;;14.33;70.37;95837.44;6216131;23;20020;-78
2023/03/24 10:02:59;;;;;;;1.90;1.65;;;;;;;14.32;70.20;95843.72;6214746;23;20505;-78
2023/03/24 10:05:32;;;;;;;3.22;1.83;;;;;;;14.34;70.50;95836.44;6215704;23;20028;-78
2023/03/24 10:08:11;;;;;;;2.45;2.03;;;;;;;14.34;70.83;95841.69;6216260;23;20687;-79
2023/03/24 10:10:49;;;;;;;2.38;2.00;;;;;;;14.36;71.82;95850.09;6216906;23;20024;-78
2023/03/24 10:13:21;;;;;;;1.70;1.60;;;;;;;14.33;70.11;95850.56;6216638;23;20029;-78
2023/03/24 10:15:55;;;;;;;2.05;1.65;;;;;;;14.36;71.52;95857.16;6215244;22;20024;-83
2023/03/24 10:18:33;;;;;;;2.20;2.00;;;;;;;14.42;70.77;95837.91;6223803;23;20047;-81
2023/03/24 10:21:06;;;;;;;1.90;1.60;;;;;;;14.49;70.00;95843.06;6226547;23;20021;-80
2023/03/24 10:23:40;;;;;;;3.42;1.33;;;;;;;14.55;69.75;95850.06;6226337;23;20025;-80
2023/03/24 10:26:26;;;;;;;1.70;1.17;;;;;;;14.62;70.53;95858.63;6224764;23;20055;-81
2023/03/24 10:29:06;;;;;;;1.10;1.05;;;;;;;14.63;68.77;95855.81;6224774;23;20048;-84
2023/03/24 10:31:37;;;;;;;1.92;1.20;;;;;;;14.68;68.51;95857.75;6226962;23;20039;-80
2023/03/24 10:34:06;;;;;;;1.17;1.08;;;;;;;14.76;68.49;95838.25;6228995;23;20044;-82
2023/03/24 10:36:37;;;;;;;2.58;1.35;;;;;;;14.84;67.99;95841.31;6228894;23;20032;-81
2023/03/24 10:39:15;;;;;;;1.38;0.75;;;;;;;14.93;67.47;95843.63;6227341;23;20048;-86
2023/03/24 10:41:49;;;;;;;1.50;0.95;;;;;;;15.04;67.08;95834.94;6228885;23;20444;-84
2023/03/24 10:44:18;;;;;;;0.88;0.82;;;;;;;15.15;65.79;95843.84;6228435;23;20016;-83
2023/03/24 10:46:49;;;;;;;0.90;0.80;;;;;;;15.28;64.77;95840.97;6225865;23;20099;-81
2023/03/24 10:49:19;;;;;;;0.73;0.73;;;;;;;15.44;65.29;95839.50;6226359;23;20017;-81
2023/03/24 10:51:48;;;;;;;1.20;1.02;;;;;;;15.64;65.21;95837.28;6224588;23;20076;-81
2023/03/24 10:54:18;;;;;;;2.00;0.80;;;;;;;15.82;64.67;95838.19;6223301;23;20072;-79
2023/03/24 10:56:48;;;;;;;0.85;0.80;;;;;;;15.94;63.34;95840.75;6224548;23;20023;-78
2023/03/24 10:59:26;;;;;;;0.98;0.77;;;;;;;15.94;61.28;95832.88;6224905;23;20021;-81
2023/03/24 11:02:03;;;;;;;0.50;0.50;;;;;;;15.88;61.69;95829.38;6224873;23;20544;-77
2023/03/24 11:04:32;;;;;;;0.60;0.60;;;;;;;15.86;61.70;95834.06;6223891;23;20028;-79
2023/03/24 11:07:05;;;;;;;1.38;0.80;;;;;;;15.83;62.11;95832.69;6225683;23;20104;-78
2023/03/24 11:09:41;;;;;;;;;;;;;;;15.83;61.40;95839.78;6225129;23;20020;-79
2023/03/24 11:12:22;;;;;;;0.70;0.70;;;;;;;15.79;61.20;95841.28;6225682;23;19919;-79
2023/03/24 11:14:52;;;;;;;0.75;0.75;;;;;;;15.76;61.88;95839.09;6225432;23;20044;-79
2023/03/24 11:17:21;;;;;;;0.80;0.80;;;;;;;15.70;60.94;95847.91;6225316;23;20024;-80
2023/03/24 11:19:54;;;;;;;0.77;0.65;;;;;;;15.59;60.67;95852.13;6225187;23;20389;-81
2023/03/24 11:22:22;;;;;;;0.45;0.45;;;;;;;15.53;60.74;95842.56;6226973;23;20396;-80
2023/03/24 11:24:52;;;;;;;0.95;0.70;;;;;;;15.54;61.98;95850.22;6226347;23;20017;-79
2023/03/24 11:27:20;;;;;;;0.75;0.70;;;;;;;15.60;62.37;95845.88;6226361;23;20051;-77
2023/03/24 11:29:52;;;;;;;1.00;0.80;;;;;;;15.64;62.78;95849.63;6224206;23;20342;-80
2023/03/24 11:32:25;;;;;;;1.50;0.90;;;;;;;15.64;62.45;95844.38;6225728;23;20020;-79
2023/03/24 11:35:03;;;;;;;0.90;0.43;;;;;;;15.66;60.84;95847.56;6223197;23;20353;-78
2023/03/24 11:37:33;;;;;;;0.73;0.52;;;;;;;15.70;60.57;95846.09;6225929;23;20100;-81
2023/03/24 11:40:23;;;;;;;0.85;0.57;;;;;;;15.72;60.80;95845.88;6223858;23;20024;-79
2023/03/24 11:42:54;;;;;;;0.80;0.50;;;;;;;15.73;60.19;95823.81;6225188;23;20017;-82
2023/03/24 11:45:27;;;;;;;1.03;0.50;;;;;;;15.69;60.33;95828.69;6225944;23;20170;-80
2023/03/24 11:47:57;;;;;;;2.15;0.60;;;;;;;15.70;59.84;95832.13;6223339;23;20024;-79
2023/03/24 11:50:29;;;;;;;2.38;0.80;;;;;;;15.72;60.81;95843.22;6223645;23;20360;-79
2023/03/24 11:53:03;;;;;;;0.30;0.30;;;;;;;15.71;58.72;95831.09;6225162;23;20059;-79
2023/03/24 11:55:36;;;;;;;2.05;0.40;;;;;;;15.68;58.95;95845.50;6224360;23;20025;-77
2023/03/24 11:58:12;;;;;;;1.83;0.60;;;;;;;15.68;60.18;95844.69;6223774;23;20025;-78
2023/03/24 12:00:46;;;;;;;0.30;0.30;;;;;;;15.67;59.14;95843.91;6223080;23;20055;-77
2023/03/24 12:03:43;;;;;;;2.38;0.50;;;;;;;15.74;59.72;95849.06;6219554;23;20025;-81
2023/03/24 12:06:24;;;;;;;1.00;0.30;;;;;;;15.84;58.45;95834.28;6219869;23;20025;-78
2023/03/24 12:09:03;;;;;;;0.75;0.50;;;;;;;15.92;59.31;95833.13;6217634;23;20025;-79
2023/03/24 12:11:49;;;;;;;0.68;0.68;;;;;;;15.99;57.84;95828.53;6224230;23;20108;-81
2023/03/24 12:14:25;;;;;;;1.13;0.70;;;;;;;16.09;57.65;95824.47;6218224;23;20353;-78
2023/03/24 12:17:04;;;;;;;1.05;0.50;;;;;;;16.18;57.37;95830.94;6218537;23;20028;-80
2023/03/24 12:19:54;;;;;;;0.30;0.30;;;;;;;16.23;57.19;95823.16;6218037;23;20059;-80
2023/03/24 12:22:36;;;;;;;0.77;0.50;;;;;;;16.23;57.33;95828.44;6219799;23;20107;-79
2023/03/24 12:25:28;;;;;;;0.60;0.30;;;;;;;16.20;56.67;95815.72;6218985;23;20024;-78
2023/03/24 12:28:13;;;;;;;1.42;0.60;;;;;;;16.17;57.24;95826.75;6188604;23;20027;-78
2023/03/24 12:30:48;;;;;;;0.55;0.45;;;;;;;16.18;57.93;95828.31;6189339;23;20021;-79
2023/03/24 12:33:36;;;;;;;1.70;0.52;;;;;;;16.21;56.39;95819.97;6189590;23;20025;-79
2023/03/24 12:36:22;;;;;;;1.08;0.40;;;;;;;16.20;56.98;95808.66;6188700;23;20331;-79
2023/03/24 12:39:01;;;;;;;1.30;0.40;;;;;;;16.17;56.18;95822.28;6188826;23;20104;-80
2023/03/24 12:41:39;;;;;;;0.45;0.45;;;;;;;16.10;56.54;95808.47;6189097;23;20031;-79
2023/03/24 12:44:30;;;;;;;0.35;0.20;;;;;;;16.09;56.40;95814.75;6188654;23;20027;-78
2023/03/24 12:47:08;;;;;;;0.68;0.30;;;;;;;16.08;56.54;95822.91;6188825;23;20424;-77
2023/03/24 12:49:56;;;;;;;4.50;0.55;;;;;;;16.01;56.73;95813.31;6188665;23;20017;-80
2023/03/24 12:52:46;;;;;;;1.25;0.32;;;;;;;15.97;55.08;95825.31;6189080;23;20053;-79
2023/03/24 12:55:33;;;;;;;1.48;0.30;;;;;;;15.91;55.47;95828.88;6189016;23;20400;-78
2023/03/24 12:58:05;;;;;;;0.30;0.30;;;;;;;15.90;56.80;95827.31;6188207;23;20100;-79
2023/03/24 13:00:37;;;;;;;0.40;0.40;;;;;;;15.90;56.18;95822.03;6187812;23;20049;-78
2023/03/24 13:03:10;;;;;;;2.42;0.32;;;;;;;15.93;56.19;95816.31;6186364;23;20025;-78
2023/03/24 13:05:45;;;;;;;0.80;0.40;;;;;;;15.95;55.65;95813.44;6187677;23;20023;-79
2023/03/24 13:08:21;;;;;;;0.45;0.17;;;;;;;15.95;56.28;95822.13;6185508;23;20551;-78
2023/03/24 13:10:53;;;;;;;1.98;0.32;;;;;;;15.92;55.28;95824.41;6188892;23;20013;-80
2023/03/24 13:13:23;;;;;;;0.52;0.52;;;;;;;15.90;55.57;95811.53;6191288;23;20063;-80
2023/03/24 13:15:55;;;;;;;0.73;0.40;;;;;;;15.91;56.81;95812.31;6197984;23;20064;-81
2023/03/24 13:18:31;;;;;;;0.30;0.30;;;;;;;15.91;57.29;95813.09;6192886;23;20025;-85
2023/03/24 13:21:07;;;;;;;0.30;0.30;;;;;;;15.93;57.87;95815.50;6191449;23;20025;-86
2023/03/24 13:23:42;;;;;;;1.67;0.45;;;;;;;15.89;56.21;95795.97;6191565;23;20099;-85
2023/03/24 13:26:22;;;;;;;0.82;0.47;;;;;;;15.85;56.32;95820.13;6191699;23;20076;-83
2023/03/24 13:29:00;;;;;;;1.35;0.43;;;;;;;15.80;56.29;95806.06;6192036;23;20032;-85
2023/03/24 13:31:34;;;;;;;0.50;0.50;;;;;;;15.77;56.52;95798.66;6196662;23;20025;-82
2023/03/24 13:34:05;;;;;;;0.20;0.17;;;;;;;15.73;56.51;95789.63;6198863;23;20060;-84
2023/03/24 13:36:45;;;;;;;1.80;0.20;;;;;;;15.72;57.13;95788.84;6197282;23;20018;-81
2023/03/24 13:39:16;;;;;;;0.30;0.30;;;;;;;15.72;57.47;95795.91;6196191;23;20028;-82
2023/03/24 13:41:50;;;;;;;0.45;0.40;;;;;;;15.67;56.86;95788.69;6194709;23;20412;-80
2023/03/24 13:44:20;;;;;;;0.55;0.40;;;;;;;15.65;58.70;95788.94;6196888;23;20021;-83
2023/03/24 13:47:09;;;;;;;1.42;0.40;;;;;;;15.65;57.55;95788.94;6197259;23;20400;-78
2023/03/24 13:49:37;;;;;;;0.30;0.30;;;;;;;15.65;58.09;95788.94;6195311;23;20404;-81
2023/03/24 13:52:22;;;;;;;0.30;0.30;;;;;;;15.66;57.77;95785.28;6195521;23;20051;-81
2023/03/24 13:54:59;;;;;;;0.35;0.30;;;;;;;15.68;56.96;95781.59;6194389;23;20508;-81
2023/03/24 13:57:28;;;;;;;0.95;0.20;;;;;;;15.65;56.87;95781.06;6194474;23;20075;-79
2023/03/24 14:00:16;;;;;;;0.43;0.30;;;;;;;15.64;57.23;95782.06;6191463;23;20032;-77
2023/03/24 14:02:49;;;;;;;0.50;0.32;;;;;;;15.64;58.05;95792.59;6192973;23;20056;-81
2023/03/24 14:05:40;;;;;;;1.05;0.40;;;;;;;15.65;57.44;95788.94;6193574;23;20021;-81
2023/03/24 14:08:15;;;;;;;0.77;0.40;;;;;;;15.69;58.42;95798.97;6193875;23;20045;-80
2023/03/24 14:10:47;;;;;;;0.77;0.30;;;;;;;15.69;57.03;95798.97;6193696;23;20025;-80
2023/03/24 14:13:21;;;;;;;;;;;;;;;15.70;57.89;95790.06;6194578;23;20052;-79
2023/03/24 14:15:50;;;;;;;0.70;0.35;;;;;;;15.64;57.37;95797.84;6192281;23;19938;-78
2023/03/24 14:18:41;;;;;;;0.40;0.30;;;;;;;15.62;57.07;95799.91;6192210;23;20021;-80
2023/03/24 14:21:10;;;;;;;0.20;0.20;;;;;;;15.59;56.14;95794.31;6194030;23;20073;-81
2023/03/24 14:23:42;;;;;;;0.20;0.20;;;;;;;15.56;57.23;95811.34;6196999;23;20040;-83